createdAt,value
2023-03-29T00:02:04.336Z,4.03
2023-03-29T00:04:35.772Z,3.67
2023-03-29T00:07:07.148Z,4.60
2023-03-29T00:09:38.493Z,7.33
2023-03-29T00:12:11.562Z,4.97
2023-03-29T00:14:42.866Z,4.77
2023-03-29T00:17:14.203Z,6.43
2023-03-29T00:19:46.490Z,7.00
2023-03-29T00:22:17.827Z,2.83
2023-03-29T00:24:51.980Z,5.20
2023-03-29T00:27:23.426Z,4.73
2023-03-29T00:29:56.160Z,3.97
2023-03-29T00:32:27.527Z,4.57
2023-03-29T00:35:00.879Z,4.17
2023-03-29T00:37:33.329Z,5.87
2023-03-29T00:40:12.053Z,5.30
2023-03-29T00:42:46.514Z,6.00
2023-03-29T00:45:25.536Z,6.03
2023-03-29T00:48:02.181Z,6.60
2023-03-29T00:50:59.809Z,10.73
2023-03-29T00:53:37.844Z,4.87
2023-03-29T00:56:22.702Z,3.13
2023-03-29T00:59:03.622Z,4.30
2023-03-29T01:01:55.009Z,10.33
2023-03-29T01:04:36.517Z,3.40
2023-03-29T01:07:22.019Z,3.17
2023-03-29T01:09:58.911Z,4.70
2023-03-29T01:12:37.740Z,10.37
2023-03-29T01:15:12.096Z,4.97
2023-03-29T01:17:44.344Z,3.83
2023-03-29T01:20:23.412Z,12.33
2023-03-29T01:23:27.186Z,7.57
2023-03-29T01:26:12.495Z,4.07
2023-03-29T01:28:50.477Z,9.77
2023-03-29T01:31:26.758Z,7.70
2023-03-29T01:37:05.768Z,7.55
2023-03-29T01:40:14.913Z,5.77
2023-03-29T01:42:55.342Z,7.97
2023-03-29T01:45:36.068Z,6.20
2023-03-29T01:48:10.588Z,4.20
2023-03-29T01:50:47.823Z,7.40
2023-03-29T01:53:33.030Z,6.97
2023-03-29T01:56:17.014Z,4.07
2023-03-29T01:59:13.696Z,4.27
2023-03-29T02:01:52.088Z,9.50
2023-03-29T02:04:32.441Z,4.03
2023-03-29T02:07:08.581Z,4.87
2023-03-29T02:09:41.142Z,6.57
2023-03-29T02:12:15.524Z,4.93
2023-03-29T02:14:46.919Z,4.47
2023-03-29T02:17:27.780Z,4.83
2023-03-29T02:20:14.892Z,5.93
2023-03-29T02:22:58.430Z,8.80
2023-03-29T02:25:30.224Z,5.97
2023-03-29T02:28:01.658Z,3.13
2023-03-29T02:30:51.187Z,3.60
2023-03-29T02:33:31.256Z,4.47
2023-03-29T02:36:42.959Z,4.33
2023-03-29T02:39:16.163Z,4.37
2023-03-29T02:41:51.217Z,3.90
2023-03-29T02:44:26.454Z,4.83
2023-03-29T02:47:03.161Z,6.23
2023-03-29T02:49:34.615Z,3.50
2023-03-29T02:52:11.708Z,6.37
2023-03-29T02:54:46.422Z,7.67
2023-03-29T02:57:18.120Z,6.40
2023-03-29T02:59:50.363Z,5.50
2023-03-29T03:02:21.672Z,5.30
2023-03-29T03:04:53.515Z,5.13
2023-03-29T03:07:24.876Z,6.50
2023-03-29T03:09:56.907Z,5.53
2023-03-29T03:12:28.392Z,5.73
2023-03-29T03:14:59.687Z,6.17
2023-03-29T03:17:33.248Z,6.17
2023-03-29T03:20:08.630Z,7.77
2023-03-29T03:22:48.690Z,6.13
2023-03-29T03:25:21.191Z,4.20
2023-03-29T03:27:54.145Z,4.83
2023-03-29T03:30:25.511Z,7.60
2023-03-29T03:32:57.031Z,9.70
2023-03-29T03:35:28.523Z,7.10
2023-03-29T03:38:00.140Z,3.33
2023-03-29T03:40:32.265Z,7.17
2023-03-29T03:43:03.988Z,5.00
2023-03-29T03:45:35.501Z,5.57
2023-03-29T03:48:07.122Z,8.00
2023-03-29T03:50:38.611Z,4.90
2023-03-29T03:53:09.925Z,5.23
2023-03-29T03:55:41.296Z,4.67
2023-03-29T03:58:12.584Z,6.90
2023-03-29T04:00:45.150Z,4.27
2023-03-29T04:03:17.780Z,5.20
2023-03-29T04:05:49.285Z,7.73
2023-03-29T04:08:22.427Z,5.50
2023-03-29T04:10:56.211Z,6.63
2023-03-29T04:13:27.952Z,10.60
2023-03-29T04:16:01.762Z,4.83
2023-03-29T04:18:33.432Z,6.60
2023-03-29T04:21:05.032Z,7.43
2023-03-29T04:23:36.372Z,7.20
2023-03-29T04:26:07.680Z,7.17
2023-03-29T04:28:40.114Z,7.93
2023-03-29T04:31:12.943Z,7.87
2023-03-29T04:33:46.800Z,8.40
2023-03-29T04:36:18.223Z,10.53
2023-03-29T04:38:52.183Z,8.67
2023-03-29T04:41:23.641Z,10.20
2023-03-29T04:43:55.838Z,7.80
2023-03-29T04:46:27.315Z,7.53
2023-03-29T04:48:58.626Z,10.07
2023-03-29T04:51:29.971Z,7.40
2023-03-29T04:54:01.294Z,8.47
2023-03-29T04:56:32.608Z,9.03
2023-03-29T04:59:04.315Z,8.50
2023-03-29T05:01:36.222Z,8.93
2023-03-29T05:04:07.579Z,9.37
2023-03-29T05:06:38.900Z,8.07
2023-03-29T05:09:10.470Z,9.63
2023-03-29T05:11:41.804Z,7.67
2023-03-29T05:14:13.330Z,7.63
2023-03-29T05:16:44.814Z,8.47
2023-03-29T05:19:16.734Z,7.70
2023-03-29T05:21:50.007Z,10.53
2023-03-29T05:24:22.273Z,13.23
2023-03-29T05:26:53.568Z,10.00
2023-03-29T05:29:25.149Z,13.70
2023-03-29T05:31:56.551Z,10.77
2023-03-29T05:34:28.031Z,8.27
2023-03-29T05:37:00.350Z,10.47
2023-03-29T05:39:34.596Z,7.57
2023-03-29T05:42:07.893Z,8.68
2023-03-29T05:44:40.261Z,11.13
2023-03-29T05:47:12.159Z,9.33
2023-03-29T05:49:43.512Z,6.47
2023-03-29T05:52:15.035Z,8.70
2023-03-29T05:54:46.371Z,8.40
2023-03-29T05:57:17.755Z,7.63
2023-03-29T05:59:49.079Z,10.83
2023-03-29T06:02:21.349Z,10.43
2023-03-29T06:04:54.111Z,5.60
2023-03-29T06:07:25.606Z,11.10
2023-03-29T06:09:56.894Z,7.13
2023-03-29T06:12:28.277Z,7.80
2023-03-29T06:15:04.671Z,8.13
2023-03-29T06:17:36.325Z,7.40
2023-03-29T06:20:10.951Z,8.33
2023-03-29T06:22:43.268Z,4.50
2023-03-29T06:25:15.482Z,6.30
2023-03-29T06:27:47.246Z,7.67
2023-03-29T06:30:19.603Z,8.43
2023-03-29T06:32:50.940Z,5.60
2023-03-29T06:35:22.862Z,13.60
2023-03-29T06:37:54.428Z,6.57
2023-03-29T06:40:27.220Z,8.00
2023-03-29T06:42:59.328Z,6.30
2023-03-29T06:45:36.692Z,5.67
2023-03-29T06:48:08.464Z,8.37
2023-03-29T06:50:40.095Z,5.97
2023-03-29T06:53:11.498Z,6.10
2023-03-29T06:55:42.814Z,6.50
2023-03-29T06:58:15.306Z,8.10
2023-03-29T07:00:47.645Z,7.13
2023-03-29T07:03:23.353Z,5.30
2023-03-29T07:06:02.597Z,6.18
2023-03-29T07:08:35.231Z,4.40
2023-03-29T07:11:07.052Z,7.73
2023-03-29T07:13:42.512Z,4.67
2023-03-29T07:16:14.236Z,6.03
2023-03-29T07:18:45.832Z,5.07
2023-03-29T07:21:17.399Z,4.87
2023-03-29T07:23:48.722Z,5.03
2023-03-29T07:26:28.545Z,10.37
2023-03-29T07:29:00.955Z,6.90
2023-03-29T07:31:35.657Z,5.30
2023-03-29T07:34:10.792Z,5.27
2023-03-29T07:36:43.646Z,3.83
2023-03-29T07:39:15.632Z,8.23
2023-03-29T07:41:47.011Z,4.73
2023-03-29T07:44:18.355Z,5.00
2023-03-29T07:46:49.640Z,4.47
2023-03-29T07:49:22.214Z,7.10
2023-03-29T07:51:54.899Z,4.93
2023-03-29T07:54:26.196Z,6.47
2023-03-29T07:56:57.637Z,7.17
2023-03-29T07:59:28.995Z,3.43
2023-03-29T08:02:00.534Z,6.37
2023-03-29T08:04:32.223Z,5.50
2023-03-29T08:07:03.776Z,4.77
2023-03-29T08:09:35.089Z,4.90
2023-03-29T08:12:07.594Z,4.33
2023-03-29T08:14:38.929Z,6.73
2023-03-29T08:17:10.885Z,6.30
2023-03-29T08:19:42.365Z,4.03
2023-03-29T08:22:22.875Z,7.70
2023-03-29T08:24:54.459Z,4.67
2023-03-29T08:27:26.082Z,6.17
2023-03-29T08:29:57.432Z,4.10
2023-03-29T08:32:28.741Z,5.67
2023-03-29T08:35:03.838Z,5.53
2023-03-29T08:37:36.540Z,4.57
2023-03-29T08:40:10.347Z,8.27
2023-03-29T08:43:09.332Z,8.90
2023-03-29T08:46:34.292Z,7.57
2023-03-29T08:49:07.910Z,4.97
2023-03-29T08:51:45.297Z,4.57
2023-03-29T08:54:30.183Z,4.90
2023-03-29T08:57:10.914Z,5.07
2023-03-29T08:59:44.378Z,5.17
2023-03-29T09:02:23.965Z,4.93
2023-03-29T09:05:00.731Z,4.83
2023-03-29T09:07:32.708Z,4.93
2023-03-29T09:10:04.250Z,7.73
2023-03-29T09:12:56.117Z,4.77
2023-03-29T09:15:34.443Z,7.97
2023-03-29T09:18:17.017Z,6.40
2023-03-29T09:21:11.456Z,6.07
2023-03-29T09:24:00.019Z,4.67
2023-03-29T09:26:54.567Z,7.33
2023-03-29T09:29:54.464Z,7.20
2023-03-29T09:32:54.336Z,5.77
2023-03-29T09:35:46.055Z,6.97
2023-03-29T09:38:18.461Z,7.13
2023-03-29T09:41:00.243Z,6.37
2023-03-29T09:43:40.498Z,6.07
2023-03-29T09:46:36.285Z,5.70
2023-03-29T09:49:17.101Z,7.43
2023-03-29T09:51:50.209Z,5.53
2023-03-29T09:54:21.607Z,6.10
2023-03-29T09:56:53.287Z,7.43
2023-03-29T09:59:24.981Z,5.73
2023-03-29T10:02:07.631Z,7.67
2023-03-29T10:04:42.534Z,8.47
2023-03-29T10:07:20.641Z,5.90
2023-03-29T10:09:55.049Z,5.57
2023-03-29T10:12:26.811Z,7.03
2023-03-29T10:15:00.570Z,6.73
2023-03-29T10:17:39.373Z,5.73
2023-03-29T10:20:15.445Z,8.83
2023-03-29T10:25:25.311Z,6.37
2023-03-29T10:28:12.158Z,8.27
2023-03-29T10:30:47.480Z,5.33
2023-03-29T10:33:21.806Z,5.95
2023-03-29T10:35:57.214Z,9.60
2023-03-29T10:38:30.091Z,6.95
2023-03-29T10:41:09.911Z,7.93
2023-03-29T10:43:49.237Z,10.33
2023-03-29T10:46:27.102Z,7.53
2023-03-29T10:49:02.959Z,6.13
2023-03-29T10:51:34.570Z,7.65
2023-03-29T10:54:06.828Z,6.13
2023-03-29T10:56:47.033Z,6.43
2023-03-29T10:59:36.488Z,5.93
2023-03-29T11:02:28.418Z,5.30
2023-03-29T11:05:05.950Z,7.23
2023-03-29T11:07:56.104Z,7.07
2023-03-29T11:10:56.737Z,8.03
2023-03-29T11:13:37.409Z,4.93
2023-03-29T11:16:50.913Z,5.20
2023-03-29T11:19:37.417Z,8.83
2023-03-29T11:22:24.607Z,8.10
2023-03-29T11:25:15.037Z,10.17
2023-03-29T11:28:03.878Z,7.40
2023-03-29T11:31:04.758Z,7.27
2023-03-29T11:33:58.027Z,7.53
2023-03-29T11:36:51.372Z,9.40
2023-03-29T11:39:36.297Z,7.90
2023-03-29T11:42:16.415Z,9.67
2023-03-29T11:47:28.780Z,5.47
2023-03-29T11:50:04.256Z,6.77
2023-03-29T11:53:08.313Z,7.07
2023-03-29T11:55:41.315Z,7.23
2023-03-29T11:58:22.315Z,8.57
2023-03-29T12:01:07.358Z,7.07
2023-03-29T12:03:48.026Z,7.00
2023-03-29T12:06:33.035Z,8.63
2023-03-29T12:09:27.285Z,8.20
2023-03-29T12:12:27.387Z,7.60
2023-03-29T12:15:07.035Z,8.10
2023-03-29T12:17:47.096Z,7.90
2023-03-29T12:20:26.956Z,6.33
2023-03-29T12:22:58.467Z,7.50
2023-03-29T12:25:37.310Z,7.23
2023-03-29T12:28:33.122Z,6.97
2023-03-29T12:31:25.663Z,6.70
2023-03-29T12:34:21.605Z,7.97
2023-03-29T12:37:06.530Z,6.43
2023-03-29T12:39:39.064Z,7.97
2023-03-29T12:42:19.640Z,7.33
2023-03-29T12:45:01.512Z,7.70
2023-03-29T12:47:43.187Z,6.33
2023-03-29T12:50:28.778Z,7.03
2023-03-29T12:53:16.278Z,5.87
2023-03-29T12:56:08.387Z,7.47
2023-03-29T12:58:39.711Z,9.07
2023-03-29T13:01:32.084Z,6.33
2023-03-29T13:04:22.375Z,6.63
2023-03-29T13:07:03.316Z,7.23
2023-03-29T13:10:02.160Z,6.70
2023-03-29T13:12:43.107Z,6.67
2023-03-29T13:15:14.594Z,7.77
2023-03-29T13:18:09.116Z,8.67
2023-03-29T13:21:04.444Z,7.47
2023-03-29T13:24:19.975Z,7.83
2023-03-29T13:27:01.626Z,7.40
2023-03-29T13:29:53.379Z,6.83
2023-03-29T13:32:46.349Z,9.17
2023-03-29T13:35:36.798Z,9.30
2023-03-29T13:38:28.720Z,8.80
2023-03-29T13:41:07.122Z,7.97
2023-03-29T13:43:44.631Z,7.67
2023-03-29T13:46:22.177Z,11.80
2023-03-29T13:49:02.170Z,9.80
2023-03-29T13:51:42.192Z,9.43
2023-03-29T13:54:28.869Z,9.03
2023-03-29T13:57:24.656Z,7.93
2023-03-29T14:00:00.485Z,13.37
2023-03-29T14:02:41.823Z,9.20
2023-03-29T14:05:17.892Z,11.07
2023-03-29T14:07:52.488Z,8.95
2023-03-29T14:10:34.844Z,10.17
2023-03-29T14:13:06.687Z,9.60
2023-03-29T14:15:58.597Z,10.70
2023-03-29T14:18:37.438Z,12.27
2023-03-29T14:21:12.274Z,9.33
2023-03-29T14:23:46.530Z,7.50
2023-03-29T14:26:21.122Z,9.30
2023-03-29T14:28:56.633Z,6.67
2023-03-29T14:31:36.774Z,8.43
2023-03-29T14:34:14.584Z,9.30
2023-03-29T14:36:48.902Z,9.63
2023-03-29T14:39:22.853Z,7.33
2023-03-29T14:41:56.856Z,9.53
2023-03-29T14:44:32.951Z,12.67
2023-03-29T14:47:04.408Z,8.07
2023-03-29T14:49:36.047Z,9.47
2023-03-29T14:52:09.765Z,8.23
2023-03-29T14:54:47.049Z,8.53
2023-03-29T14:57:18.999Z,8.67
2023-03-29T14:59:58.993Z,8.00
2023-03-29T15:02:33.116Z,8.27
2023-03-29T15:05:25.437Z,9.53
2023-03-29T15:07:57.325Z,8.37
2023-03-29T15:10:33.253Z,8.40
2023-03-29T15:13:07.617Z,9.63
2023-03-29T15:15:39.880Z,7.97
2023-03-29T15:18:15.807Z,11.97
2023-03-29T15:20:48.293Z,8.90
2023-03-29T15:23:23.796Z,9.23
2023-03-29T15:26:09.559Z,8.93
2023-03-29T15:28:55.787Z,9.15
2023-03-29T15:31:34.592Z,9.57
2023-03-29T15:34:11.929Z,21.33
2023-03-29T15:36:45.641Z,9.10
2023-03-29T15:39:18.566Z,8.87
2023-03-29T15:41:53.586Z,12.23
2023-03-29T15:44:32.193Z,8.53
2023-03-29T15:47:03.742Z,8.70
2023-03-29T15:49:35.309Z,7.83
2023-03-29T15:52:06.691Z,9.63
2023-03-29T15:54:38.180Z,8.87
2023-03-29T15:57:14.845Z,9.70
2023-03-29T15:59:46.298Z,7.67
2023-03-29T16:02:21.707Z,8.57
2023-03-29T16:04:53.380Z,13.65
2023-03-29T16:07:24.730Z,8.73
2023-03-29T16:09:56.077Z,11.90
2023-03-29T16:12:27.423Z,9.73
2023-03-29T16:14:58.709Z,8.33
2023-03-29T16:17:30.125Z,7.67
2023-03-29T16:20:04.771Z,7.57
2023-03-29T16:22:36.888Z,8.53
2023-03-29T16:25:14.649Z,11.43
2023-03-29T16:27:47.031Z,10.50
2023-03-29T16:30:19.523Z,8.10
2023-03-29T16:32:51.378Z,9.37
2023-03-29T16:35:28.511Z,6.83
2023-03-29T16:37:59.839Z,11.00
2023-03-29T16:40:31.592Z,9.53
2023-03-29T16:43:03.207Z,8.40
2023-03-29T16:45:34.489Z,8.90
2023-03-29T16:48:05.910Z,8.77
2023-03-29T16:50:37.206Z,9.20
2023-03-29T16:53:08.945Z,8.53
2023-03-29T16:55:40.589Z,9.20
2023-03-29T16:58:11.885Z,9.73
2023-03-29T17:00:46.346Z,9.03
2023-03-29T17:03:20.531Z,10.43
2023-03-29T17:05:53.565Z,12.40
2023-03-29T17:08:24.856Z,10.20
2023-03-29T17:10:56.686Z,8.17
2023-03-29T17:13:28.317Z,11.40
2023-03-29T17:16:00.630Z,8.70
2023-03-29T17:18:32.045Z,8.40
2023-03-29T17:21:03.549Z,9.57
2023-03-29T17:23:35.378Z,12.20
2023-03-29T17:26:07.557Z,10.50
2023-03-29T17:28:39.120Z,9.40
2023-03-29T17:31:12.523Z,9.70
2023-03-29T17:33:43.959Z,12.77
2023-03-29T17:36:15.686Z,8.43
2023-03-29T17:38:48.807Z,9.17
2023-03-29T17:41:21.432Z,8.37
2023-03-29T17:43:53.227Z,7.77
2023-03-29T17:46:24.683Z,7.90
2023-03-29T17:48:56.563Z,8.63
2023-03-29T17:51:28.201Z,10.07
2023-03-29T17:53:59.574Z,7.10
2023-03-29T17:56:31.826Z,9.40
2023-03-29T17:59:03.542Z,9.70
2023-03-29T18:01:37.045Z,9.20
2023-03-29T18:04:12.424Z,9.95
2023-03-29T18:06:45.606Z,10.50
2023-03-29T18:09:16.960Z,11.20
2023-03-29T18:11:48.257Z,9.97
2023-03-29T18:14:21.240Z,9.63
2023-03-29T18:16:53.013Z,9.53
2023-03-29T18:19:24.438Z,9.90
2023-03-29T18:21:56.320Z,9.87
2023-03-29T18:24:27.748Z,10.43
2023-03-29T18:26:59.178Z,12.57
2023-03-29T18:29:31.154Z,14.47
2023-03-29T18:32:03.046Z,14.70
2023-03-29T18:34:34.624Z,13.70
2023-03-29T18:37:06.232Z,15.70
2023-03-29T18:39:37.549Z,14.00
2023-03-29T18:42:11.611Z,12.00
2023-03-29T18:44:43.578Z,11.60
2023-03-29T18:47:14.977Z,11.90
2023-03-29T18:49:47.148Z,11.03
2023-03-29T18:52:18.639Z,10.87
2023-03-29T18:54:49.927Z,9.27
2023-03-29T18:57:21.358Z,13.57
2023-03-29T18:59:52.789Z,15.13
2023-03-29T19:02:24.224Z,12.40
2023-03-29T19:04:55.599Z,10.53
2023-03-29T19:07:27.054Z,11.30
2023-03-29T19:09:58.461Z,12.70
2023-03-29T19:12:32.636Z,11.80
2023-03-29T19:15:04.586Z,12.17
2023-03-29T19:17:38.927Z,12.07
2023-03-29T19:20:11.157Z,12.60
2023-03-29T19:22:43.038Z,13.07
2023-03-29T19:25:14.425Z,11.87
2023-03-29T19:27:46.910Z,11.33
2023-03-29T19:30:20.290Z,12.97
2023-03-29T19:32:52.287Z,12.23
2023-03-29T19:35:23.672Z,16.70
2023-03-29T19:37:55.321Z,12.10
2023-03-29T19:40:27.427Z,14.37
2023-03-29T19:42:59.078Z,13.23
2023-03-29T19:45:30.676Z,13.20
2023-03-29T19:48:03.568Z,9.53
2023-03-29T19:50:39.474Z,11.77
2023-03-29T19:53:12.116Z,10.55
2023-03-29T19:55:45.374Z,10.47
2023-03-29T19:58:16.994Z,12.77
2023-03-29T20:00:50.668Z,10.60
2023-03-29T20:03:22.266Z,13.97
2023-03-29T20:05:56.556Z,14.20
2023-03-29T20:08:28.096Z,13.43
2023-03-29T20:11:02.112Z,14.83
2023-03-29T20:13:38.826Z,20.63
2023-03-29T20:16:14.221Z,15.97
2023-03-29T20:18:46.364Z,11.43
2023-03-29T20:21:18.296Z,13.13
2023-03-29T20:23:49.930Z,13.37
2023-03-29T20:26:22.435Z,12.77
2023-03-29T20:28:53.885Z,12.10
2023-03-29T20:31:25.449Z,10.57
2023-03-29T20:33:57.640Z,12.27
2023-03-29T20:36:30.502Z,12.87
2023-03-29T20:39:02.356Z,12.47
2023-03-29T20:41:33.833Z,12.43
2023-03-29T20:44:05.632Z,13.37
2023-03-29T20:46:37.987Z,13.27
2023-03-29T20:49:09.843Z,14.30
2023-03-29T20:51:43.042Z,11.77
2023-03-29T20:54:14.393Z,17.53
2023-03-29T20:56:48.087Z,15.67
2023-03-29T20:59:19.524Z,14.73
2023-03-29T21:01:51.978Z,14.77
2023-03-29T21:04:24.973Z,16.73
2023-03-29T21:06:56.993Z,18.67
2023-03-29T21:09:28.373Z,15.13
2023-03-29T21:11:59.825Z,13.67
2023-03-29T21:14:32.971Z,17.17
2023-03-29T21:17:05.442Z,24.17
2023-03-29T21:19:38.234Z,15.17
2023-03-29T21:22:13.816Z,15.40
2023-03-29T21:24:45.278Z,15.55
2023-03-29T21:27:16.719Z,14.27
2023-03-29T21:29:49.465Z,16.40
2023-03-29T21:32:20.779Z,20.57
2023-03-29T21:34:52.537Z,18.87
2023-03-29T21:37:24.505Z,18.40
2023-03-29T21:39:55.919Z,22.80
2023-03-29T21:42:27.506Z,19.33
2023-03-29T21:44:58.900Z,18.90
2023-03-29T21:47:30.932Z,20.73
2023-03-29T21:50:02.595Z,17.43
2023-03-29T21:52:33.943Z,19.70
2023-03-29T21:55:06.919Z,17.50
2023-03-29T21:57:38.390Z,18.13
2023-03-29T22:00:11.161Z,17.70
2023-03-29T22:02:43.382Z,21.03
2023-03-29T22:05:16.173Z,21.70
2023-03-29T22:07:50.399Z,21.67
2023-03-29T22:10:22.812Z,20.87
2023-03-29T22:12:54.198Z,20.70
2023-03-29T22:15:29.207Z,18.53
2023-03-29T22:18:01.320Z,20.13
2023-03-29T22:20:34.146Z,22.83
2023-03-29T22:23:05.935Z,20.87
2023-03-29T22:25:37.353Z,19.27
2023-03-29T22:28:08.800Z,18.40
2023-03-29T22:30:40.858Z,21.07
2023-03-29T22:33:12.237Z,21.60
2023-03-29T22:35:43.622Z,24.47
2023-03-29T22:38:14.991Z,21.83
2023-03-29T22:40:47.375Z,21.50
2023-03-29T22:43:18.986Z,19.97
2023-03-29T22:45:50.437Z,23.60
2023-03-29T22:48:22.194Z,18.57
2023-03-29T22:50:53.651Z,20.63
2023-03-29T22:53:25.590Z,24.80
2023-03-29T22:55:57.406Z,24.30
2023-03-29T22:58:31.876Z,21.60
2023-03-29T23:01:04.372Z,23.13
2023-03-29T23:03:36.710Z,24.70
2023-03-29T23:06:08.182Z,28.07
2023-03-29T23:08:39.611Z,20.50
2023-03-29T23:11:11.705Z,19.57
2023-03-29T23:13:43.285Z,23.50
2023-03-29T23:16:15.831Z,18.17
2023-03-29T23:18:47.871Z,19.80
2023-03-29T23:21:19.508Z,19.93
2023-03-29T23:23:50.989Z,20.53
2023-03-29T23:26:23.333Z,18.10
2023-03-29T23:28:54.681Z,20.57
2023-03-29T23:31:26.307Z,18.13
2023-03-29T23:33:59.016Z,18.80
2023-03-29T23:36:31.420Z,19.17
2023-03-29T23:39:03.118Z,18.97
2023-03-29T23:41:34.547Z,24.50
2023-03-29T23:44:06.656Z,17.50
2023-03-29T23:46:38.197Z,17.33
2023-03-29T23:49:10.514Z,21.77
2023-03-29T23:51:44.808Z,16.83
2023-03-29T23:54:17.490Z,15.93
2023-03-29T23:56:49.187Z,14.37
2023-03-29T23:59:22.643Z,20.87
